createdAt,value
2022-09-24T00:01:27.901Z,50.80
2022-09-24T00:03:57.792Z,45.13
2022-09-24T00:06:26.003Z,47.25
2022-09-24T00:08:56.158Z,46.70
2022-09-24T00:11:26.443Z,46.90
2022-09-24T00:13:55.546Z,54.22
2022-09-24T00:16:25.867Z,46.00
2022-09-24T00:18:55.850Z,51.10
2022-09-24T00:21:26.111Z,46.08
2022-09-24T00:23:55.616Z,44.03
2022-09-24T00:26:41.344Z,50.50
2022-09-24T00:29:10.599Z,52.65
2022-09-24T00:31:38.776Z,51.58
2022-09-24T00:34:08.654Z,53.85
2022-09-24T00:36:37.373Z,53.45
2022-09-24T00:39:06.798Z,46.47
2022-09-24T00:41:36.417Z,51.22
2022-09-24T00:44:48.299Z,52.13
2022-09-24T00:47:29.646Z,50.78
2022-09-24T00:50:09.083Z,54.63
2022-09-24T00:52:41.762Z,55.85
2022-09-24T00:55:10.858Z,53.17
2022-09-24T00:57:40.922Z,53.38
2022-09-24T01:00:10.539Z,54.20
2022-09-24T01:02:42.294Z,52.60
2022-09-24T01:05:12.095Z,58.85
2022-09-24T01:07:40.179Z,55.70
2022-09-24T01:10:08.620Z,57.22
2022-09-24T01:12:43.654Z,56.75
2022-09-24T01:15:21.566Z,60.40
2022-09-24T01:17:55.899Z,56.95
2022-09-24T01:20:48.381Z,55.42
2022-09-24T01:23:57.301Z,60.78
2022-09-24T01:26:38.875Z,54.78
2022-09-24T01:29:37.519Z,57.63
2022-09-24T01:32:09.996Z,59.75
2022-09-24T01:34:42.137Z,61.85
2022-09-24T01:37:11.094Z,55.40
2022-09-24T01:39:40.236Z,65.25
2022-09-24T01:42:11.100Z,62.63
2022-09-24T01:44:44.668Z,63.00
2022-09-24T01:47:20.881Z,58.95
2022-09-24T01:49:53.509Z,58.60
2022-09-24T02:00:02.808Z,63.33
2022-09-24T02:06:37.063Z,58.97
2022-09-24T02:26:16.406Z,74.22
2022-09-24T02:29:17.297Z,74.03
2022-09-24T02:31:53.514Z,74.25
2022-09-24T02:34:29.038Z,85.18
2022-09-24T02:37:03.819Z,85.32
2022-09-24T02:39:32.396Z,72.45
2022-09-24T02:42:01.452Z,79.50
2022-09-24T02:44:31.408Z,83.88
2022-09-24T02:47:00.689Z,81.35
2022-09-24T02:49:29.301Z,81.05
2022-09-24T02:51:57.336Z,87.55
2022-09-24T02:54:26.243Z,85.47
2022-09-24T02:56:54.522Z,85.05
2022-09-24T02:59:22.811Z,85.75
2022-09-24T03:01:52.455Z,81.43
2022-09-24T03:04:20.688Z,88.93
2022-09-24T03:06:48.820Z,91.10
2022-09-24T03:09:17.012Z,91.47
2022-09-24T03:11:45.089Z,88.07
2022-09-24T03:14:13.203Z,90.88
2022-09-24T03:16:41.237Z,88.28
2022-09-24T03:19:10.907Z,96.68
2022-09-24T03:21:38.996Z,93.57
2022-09-24T03:24:07.195Z,112.00
2022-09-24T03:26:35.289Z,97.38
2022-09-24T03:29:03.394Z,90.45
2022-09-24T03:31:30.522Z,105.13
2022-09-24T03:33:59.299Z,99.45
2022-09-24T03:36:28.800Z,103.90
2022-09-24T03:38:58.149Z,113.10
2022-09-24T03:41:27.415Z,95.45
2022-09-24T03:43:55.526Z,122.47
2022-09-24T03:46:45.448Z,107.32
2022-09-24T03:49:14.248Z,114.93
2022-09-24T03:51:43.874Z,120.28
2022-09-24T03:54:25.331Z,117.60
2022-09-24T03:56:53.983Z,117.88
2022-09-24T03:59:22.120Z,118.68
2022-09-24T04:01:50.502Z,117.40
2022-09-24T04:04:19.127Z,118.85
2022-09-24T04:06:48.551Z,133.65
2022-09-24T04:09:16.752Z,109.38
2022-09-24T04:11:44.865Z,113.63
2022-09-24T04:14:13.118Z,130.75
2022-09-24T04:16:41.615Z,117.47
2022-09-24T04:19:09.705Z,118.28
2022-09-24T04:21:37.906Z,117.43
2022-09-24T04:24:07.662Z,142.85
2022-09-24T04:26:35.814Z,160.00
2022-09-24T04:29:05.360Z,125.95
2022-09-24T04:31:33.715Z,128.10
2022-09-24T04:34:02.071Z,121.63
2022-09-24T04:36:30.219Z,113.03
2022-09-24T04:38:58.347Z,128.25
2022-09-24T04:41:27.743Z,124.97
2022-09-24T04:43:55.919Z,113.38
2022-09-24T04:46:24.204Z,135.05
2022-09-24T04:48:53.520Z,116.80
2022-09-24T04:51:22.100Z,145.43
2022-09-24T04:53:51.009Z,136.30
2022-09-24T04:56:19.268Z,127.28
2022-09-24T04:58:51.740Z,114.50
2022-09-24T05:01:20.430Z,138.90
2022-09-24T05:03:48.745Z,125.70
2022-09-24T05:06:19.203Z,116.28
2022-09-24T05:08:49.031Z,124.88
2022-09-24T05:11:21.573Z,127.45
2022-09-24T05:13:54.223Z,109.28
2022-09-24T05:16:22.519Z,114.35
2022-09-24T05:18:50.664Z,157.88
2022-09-24T05:21:18.878Z,123.70
2022-09-24T05:23:48.994Z,125.63
2022-09-24T05:26:36.648Z,113.47
2022-09-24T05:29:54.682Z,124.07
2022-09-24T05:32:25.685Z,138.18
2022-09-24T05:34:56.402Z,132.68
2022-09-24T05:37:24.802Z,127.03
2022-09-24T05:39:54.005Z,141.85
2022-09-24T05:42:22.175Z,136.80
2022-09-24T05:44:52.435Z,155.15
2022-09-24T05:47:20.708Z,134.55
2022-09-24T05:49:50.952Z,129.77
2022-09-24T05:52:20.341Z,134.07
2022-09-24T05:54:48.524Z,153.35
2022-09-24T05:57:16.529Z,150.65
2022-09-24T05:59:44.777Z,151.55
2022-09-24T06:02:12.880Z,141.02
2022-09-24T06:04:41.002Z,137.65
2022-09-24T06:07:10.974Z,149.48
2022-09-24T06:09:38.971Z,129.38
2022-09-24T06:12:11.034Z,141.15
2022-09-24T06:14:39.352Z,141.65
2022-09-24T06:17:34.659Z,171.30
2022-09-24T06:20:03.076Z,131.93
2022-09-24T06:22:32.455Z,151.90
2022-09-24T06:25:00.482Z,137.05
2022-09-24T06:27:28.501Z,129.82
2022-09-24T06:29:56.559Z,129.70
2022-09-24T06:32:25.626Z,174.77
2022-09-24T06:34:58.882Z,130.27
2022-09-24T06:37:27.948Z,132.40
2022-09-24T06:39:57.414Z,127.80
2022-09-24T06:42:29.154Z,154.32
2022-09-24T06:45:04.586Z,118.50
2022-09-24T06:47:33.010Z,152.43
2022-09-24T06:50:01.060Z,129.70
2022-09-24T06:52:30.831Z,127.47
2022-09-24T06:55:01.864Z,124.07
2022-09-24T06:57:29.929Z,115.63
2022-09-24T06:59:58.319Z,124.18
2022-09-24T07:02:26.415Z,119.30
2022-09-24T07:04:54.530Z,142.43
2022-09-24T07:07:33.011Z,122.72
2022-09-24T07:10:04.660Z,127.38
2022-09-24T07:12:34.250Z,116.70
2022-09-24T07:15:02.301Z,133.68
2022-09-24T07:17:33.925Z,113.35
2022-09-24T07:20:02.725Z,123.35
2022-09-24T07:22:31.051Z,120.63
2022-09-24T07:24:59.175Z,112.45
2022-09-24T07:27:28.616Z,108.60
2022-09-24T07:29:56.795Z,105.57
2022-09-24T07:32:29.732Z,106.43
2022-09-24T07:34:59.386Z,109.88
2022-09-24T07:37:27.566Z,94.15
2022-09-24T07:39:59.997Z,99.00
2022-09-24T07:42:29.968Z,86.43
2022-09-24T07:44:58.263Z,95.75
2022-09-24T07:47:26.446Z,89.78
2022-09-24T07:49:54.889Z,88.97
2022-09-24T07:55:34.004Z,87.70
2022-09-24T07:58:03.482Z,99.80
2022-09-24T08:00:34.200Z,89.72
2022-09-24T08:03:03.151Z,84.53
2022-09-24T08:05:32.935Z,89.63
2022-09-24T08:08:02.818Z,85.38
2022-09-24T08:10:31.201Z,83.78
2022-09-24T08:13:03.920Z,79.43
2022-09-24T08:15:32.398Z,74.05
2022-09-24T08:18:18.383Z,87.13
2022-09-24T08:20:47.394Z,75.18
2022-09-24T08:23:16.198Z,74.53
2022-09-24T08:25:44.253Z,71.50
2022-09-24T08:28:16.971Z,73.35
2022-09-24T08:30:51.533Z,63.10
2022-09-24T08:33:22.676Z,71.85
2022-09-24T08:35:53.928Z,65.80
2022-09-24T08:38:22.066Z,62.55
2022-09-24T08:41:03.741Z,59.00
2022-09-24T08:43:44.602Z,55.92
2022-09-24T08:46:38.643Z,51.15
2022-09-24T08:49:19.007Z,44.42
2022-09-24T08:51:58.927Z,41.65
2022-09-24T08:54:31.421Z,38.42
2022-09-24T08:57:01.341Z,38.17
2022-09-24T08:59:37.937Z,32.65
2022-09-24T09:02:22.200Z,27.88
2022-09-24T09:05:05.351Z,28.83
2022-09-24T09:07:42.171Z,26.00
2022-09-24T09:10:16.719Z,23.67
2022-09-24T09:12:51.350Z,26.75
2022-09-24T09:15:24.598Z,25.98
2022-09-24T09:17:56.539Z,24.42
2022-09-24T09:20:30.093Z,24.42
2022-09-24T09:23:02.222Z,22.90
2022-09-24T09:25:36.047Z,20.30
2022-09-24T09:28:14.278Z,18.38
2022-09-24T09:30:55.681Z,19.27
2022-09-24T09:33:35.115Z,18.38
2022-09-24T09:36:16.734Z,18.30
2022-09-24T09:38:58.789Z,18.85
2022-09-24T09:41:36.272Z,17.33
2022-09-24T09:44:15.041Z,17.98
2022-09-24T09:46:52.995Z,17.98
2022-09-24T09:49:29.249Z,18.48
2022-09-24T09:52:00.161Z,17.00
2022-09-24T09:54:39.717Z,15.90
2022-09-24T09:57:13.261Z,16.48
2022-09-24T09:59:41.614Z,15.13
2022-09-24T10:02:20.328Z,12.48
2022-09-24T10:04:52.002Z,12.65
2022-09-24T10:07:20.453Z,10.48
2022-09-24T10:09:58.886Z,10.55
2022-09-24T10:12:27.077Z,12.02
2022-09-24T10:15:02.685Z,11.48
2022-09-24T10:17:42.869Z,14.48
2022-09-24T10:20:32.673Z,13.32
2022-09-24T10:23:06.977Z,11.38
2022-09-24T10:25:36.746Z,12.70
2022-09-24T10:32:07.469Z,9.82
2022-09-24T10:34:37.323Z,8.82
2022-09-24T10:37:15.199Z,10.80
2022-09-24T10:39:43.482Z,8.70
2022-09-24T10:42:25.012Z,8.98
2022-09-24T10:44:53.840Z,7.15
2022-09-24T10:47:28.102Z,6.60
2022-09-24T10:50:34.486Z,5.45
2022-09-24T10:53:09.620Z,7.38
2022-09-24T10:55:55.536Z,5.32
2022-09-24T10:58:40.202Z,8.65
2022-09-24T11:01:17.809Z,6.55
2022-09-24T11:04:20.945Z,7.18
2022-09-24T11:07:26.797Z,6.72
2022-09-24T11:10:02.668Z,4.22
2022-09-24T11:12:36.082Z,5.05
2022-09-24T11:15:19.415Z,4.18
2022-09-24T11:18:00.413Z,3.60
2022-09-24T11:20:34.500Z,4.90
2022-09-24T11:23:18.125Z,8.60
2022-09-24T11:25:55.817Z,9.23
2022-09-24T11:29:01.067Z,8.82
2022-09-24T11:31:41.459Z,9.80
2022-09-24T11:34:37.840Z,8.88
2022-09-24T11:37:19.479Z,10.80
2022-09-24T11:40:00.502Z,9.30
2022-09-24T11:42:37.841Z,10.75
2022-09-24T11:45:27.312Z,10.55
2022-09-24T11:48:18.669Z,10.00
2022-09-24T11:50:56.563Z,11.75
2022-09-24T11:53:32.962Z,10.40
2022-09-24T11:56:12.300Z,12.80
2022-09-24T11:58:46.872Z,11.23
2022-09-24T12:01:19.251Z,11.60
2022-09-24T12:03:54.039Z,11.85
2022-09-24T12:06:26.455Z,10.45
2022-09-24T12:09:01.423Z,11.35
2022-09-24T12:11:36.152Z,12.05
2022-09-24T12:14:15.143Z,10.73
2022-09-24T12:16:47.723Z,10.63
2022-09-24T12:19:28.262Z,12.48
2022-09-24T12:21:58.406Z,10.73
2022-09-24T12:24:31.333Z,9.43
2022-09-24T12:27:04.074Z,11.65
2022-09-24T12:29:59.107Z,11.57
2022-09-24T12:32:51.250Z,11.23
2022-09-24T12:35:36.947Z,12.30
2022-09-24T12:38:09.429Z,11.13
2022-09-24T12:41:05.486Z,11.45
2022-09-24T12:43:41.915Z,10.02
2022-09-24T12:46:18.954Z,11.35
2022-09-24T12:48:49.602Z,10.98
2022-09-24T12:51:22.513Z,11.60
2022-09-24T12:54:00.014Z,12.43
2022-09-24T12:56:31.119Z,9.93
2022-09-24T12:58:59.854Z,10.60
2022-09-24T13:01:32.196Z,9.98
2022-09-24T13:04:24.637Z,9.38
2022-09-24T13:06:52.850Z,8.13
2022-09-24T13:09:40.566Z,9.50
2022-09-24T13:12:24.350Z,8.02
2022-09-24T13:15:01.349Z,7.97
2022-09-24T13:17:32.344Z,9.32
2022-09-24T13:20:02.368Z,10.15
2022-09-24T13:22:32.157Z,10.35
2022-09-24T13:25:23.722Z,11.02
2022-09-24T13:28:01.183Z,12.13
2022-09-24T13:30:39.798Z,15.52
2022-09-24T13:33:24.159Z,14.65
2022-09-24T13:36:04.102Z,16.00
2022-09-24T13:38:36.403Z,15.15
2022-09-24T13:41:19.571Z,18.42
2022-09-24T13:43:52.558Z,16.77
2022-09-24T13:46:21.969Z,18.13
2022-09-24T13:48:54.773Z,18.80
2022-09-24T13:51:29.899Z,22.08
2022-09-24T13:54:09.766Z,23.35
2022-09-24T13:56:37.929Z,22.90
2022-09-24T13:59:07.537Z,21.77
2022-09-24T14:01:43.323Z,24.58
2022-09-24T14:04:19.472Z,25.05
2022-09-24T14:06:51.062Z,24.30
2022-09-24T14:09:28.819Z,27.70
2022-09-24T14:11:58.570Z,27.67
2022-09-24T14:14:28.955Z,28.13
2022-09-24T14:17:07.794Z,31.30
2022-09-24T14:19:37.427Z,29.83
2022-09-24T14:22:08.520Z,29.60
2022-09-24T14:24:43.697Z,26.98
2022-09-24T14:27:15.691Z,27.55
2022-09-24T14:29:48.382Z,27.00
2022-09-24T14:32:23.791Z,26.65
2022-09-24T14:34:56.009Z,24.65
2022-09-24T14:37:28.386Z,28.90
2022-09-24T14:40:03.044Z,29.27
2022-09-24T14:42:34.843Z,25.90
2022-09-24T14:45:07.852Z,30.05
2022-09-24T14:47:38.177Z,32.30
2022-09-24T14:50:35.471Z,31.90
2022-09-24T14:53:14.061Z,30.40
2022-09-24T14:55:46.685Z,31.20
2022-09-24T14:58:36.787Z,28.42
2022-09-24T15:01:08.235Z,25.88
2022-09-24T15:03:42.705Z,28.20
2022-09-24T15:06:24.346Z,26.45
2022-09-24T15:09:00.751Z,18.55
2022-09-24T15:11:34.227Z,19.40
2022-09-24T15:14:12.815Z,17.35
2022-09-24T15:16:40.942Z,19.80
2022-09-24T15:19:16.936Z,17.05
2022-09-24T15:21:46.667Z,19.27
2022-09-24T15:24:18.564Z,12.90
2022-09-24T15:26:48.905Z,10.57
2022-09-24T15:29:24.471Z,15.27
2022-09-24T15:31:52.731Z,14.18
2022-09-24T15:34:21.316Z,19.25
2022-09-24T15:36:55.488Z,15.57
2022-09-24T15:39:26.145Z,15.77
2022-09-24T15:41:57.173Z,13.13
2022-09-24T15:44:33.872Z,11.20
2022-09-24T15:47:03.958Z,16.85
2022-09-24T15:49:32.010Z,13.45
2022-09-24T15:52:06.956Z,13.30
2022-09-24T15:54:35.136Z,12.18
2022-09-24T15:57:03.273Z,14.50
2022-09-24T15:59:31.734Z,13.63
2022-09-24T16:02:04.152Z,8.90
2022-09-24T16:04:32.337Z,11.05
2022-09-24T16:07:00.446Z,12.00
2022-09-24T16:09:30.122Z,14.45
2022-09-24T16:11:58.571Z,15.00
2022-09-24T16:14:26.748Z,13.77
2022-09-24T16:16:55.806Z,13.77
2022-09-24T16:19:23.934Z,11.90
2022-09-24T16:21:52.463Z,12.63
2022-09-24T16:24:20.519Z,10.02
2022-09-24T16:26:50.004Z,19.60
2022-09-24T16:29:18.157Z,11.57
2022-09-24T16:31:46.908Z,15.73
2022-09-24T16:34:15.195Z,13.38
2022-09-24T16:36:43.274Z,10.57
2022-09-24T16:39:11.687Z,11.98
2022-09-24T16:41:39.886Z,8.45
2022-09-24T16:44:11.803Z,11.57
2022-09-24T16:46:40.081Z,15.27
2022-09-24T16:49:10.650Z,10.65
2022-09-24T16:51:39.322Z,7.25
2022-09-24T16:54:07.479Z,10.43
2022-09-24T16:56:35.563Z,9.52
2022-09-24T16:59:03.649Z,9.40
2022-09-24T17:01:33.320Z,10.55
2022-09-24T17:04:01.508Z,11.18
2022-09-24T17:06:31.381Z,12.52
2022-09-24T17:09:16.958Z,12.88
2022-09-24T17:11:46.759Z,12.00
2022-09-24T17:14:15.255Z,10.65
2022-09-24T17:16:45.141Z,13.13
2022-09-24T17:19:13.873Z,13.18
2022-09-24T17:21:45.940Z,10.45
2022-09-24T17:24:19.111Z,13.55
2022-09-24T17:26:49.522Z,18.30
2022-09-24T17:29:20.602Z,13.00
2022-09-24T17:31:50.673Z,16.30
2022-09-24T17:34:18.793Z,14.90
2022-09-24T17:36:46.905Z,10.85
2022-09-24T17:39:17.026Z,14.82
2022-09-24T17:41:46.956Z,10.05
2022-09-24T17:44:17.273Z,15.25
2022-09-24T17:46:45.777Z,10.13
2022-09-24T17:49:16.493Z,14.40
2022-09-24T17:51:46.485Z,12.70
2022-09-24T17:54:18.799Z,8.75
2022-09-24T17:56:46.874Z,12.40
2022-09-24T17:59:15.994Z,11.95
2022-09-24T18:01:45.050Z,11.35
2022-09-24T18:04:16.422Z,11.35
2022-09-24T18:06:45.689Z,12.32
2022-09-24T18:09:14.759Z,11.68
2022-09-24T18:11:44.911Z,15.32
2022-09-24T18:14:16.819Z,10.60
2022-09-24T18:16:45.419Z,14.95
2022-09-24T18:19:17.043Z,11.63
2022-09-24T18:21:46.174Z,12.07
2022-09-24T18:24:16.394Z,12.82
2022-09-24T18:26:44.678Z,8.27
2022-09-24T18:29:15.644Z,9.20
2022-09-24T18:31:44.822Z,8.43
2022-09-24T18:34:15.786Z,16.92
2022-09-24T18:36:45.164Z,13.32
2022-09-24T18:39:21.757Z,11.10
2022-09-24T18:41:52.089Z,15.50
2022-09-24T18:44:20.613Z,14.02
2022-09-24T18:46:50.003Z,11.75
2022-09-24T18:49:20.320Z,15.40
2022-09-24T18:51:52.007Z,17.10
2022-09-24T18:54:20.058Z,12.07
2022-09-24T18:56:48.169Z,12.95
2022-09-24T18:59:18.152Z,13.15
2022-09-24T19:01:47.463Z,13.18
2022-09-24T19:04:16.336Z,15.65
2022-09-24T19:06:48.146Z,15.40
2022-09-24T19:09:17.789Z,15.80
2022-09-24T19:11:48.703Z,11.30
2022-09-24T19:14:18.527Z,16.42
2022-09-24T19:16:47.357Z,14.50
2022-09-24T19:19:16.178Z,12.43
2022-09-24T19:21:45.688Z,18.63
2022-09-24T19:24:13.917Z,13.70
2022-09-24T19:26:41.920Z,14.13
2022-09-24T19:29:10.109Z,10.93
2022-09-24T19:31:40.832Z,16.58
2022-09-24T19:34:12.362Z,12.63
2022-09-24T19:36:43.859Z,12.73
2022-09-24T19:39:15.654Z,13.13
2022-09-24T19:41:44.214Z,13.63
2022-09-24T19:44:12.942Z,12.40
2022-09-24T19:46:41.376Z,17.05
2022-09-24T19:49:09.597Z,13.80
2022-09-24T19:51:38.369Z,13.40
2022-09-24T19:54:08.752Z,14.38
2022-09-24T19:56:38.824Z,14.00
2022-09-24T19:59:08.005Z,8.25
2022-09-24T20:01:36.344Z,11.50
2022-09-24T20:04:07.132Z,12.40
2022-09-24T20:06:37.314Z,12.10
2022-09-24T20:09:05.869Z,21.23
2022-09-24T20:11:34.696Z,12.00
2022-09-24T20:14:06.123Z,9.88
2022-09-24T20:16:34.365Z,6.72
2022-09-24T20:19:05.249Z,10.00
2022-09-24T20:21:36.430Z,13.63
2022-09-24T20:24:05.492Z,14.57
2022-09-24T20:26:51.330Z,11.88
2022-09-24T20:29:22.717Z,10.98
2022-09-24T20:31:54.004Z,14.90
2022-09-24T20:34:23.694Z,11.65
2022-09-24T20:36:51.836Z,13.95
2022-09-24T20:39:20.453Z,14.15
2022-09-24T20:41:49.448Z,9.85
2022-09-24T20:44:17.922Z,9.73
2022-09-24T20:46:47.314Z,9.30
2022-09-24T20:49:22.370Z,13.57
2022-09-24T20:51:56.209Z,14.85
2022-09-24T20:54:25.718Z,10.48
2022-09-24T20:56:54.155Z,12.73
2022-09-24T20:59:22.169Z,12.15
2022-09-24T21:01:51.648Z,9.00
2022-09-24T21:04:21.225Z,11.02
2022-09-24T21:06:50.108Z,14.55
2022-09-24T21:09:18.232Z,13.15
2022-09-24T21:11:46.305Z,12.00
2022-09-24T21:14:14.799Z,11.90
2022-09-24T21:16:42.869Z,14.00
2022-09-24T21:19:12.840Z,14.35
2022-09-24T21:21:40.850Z,10.65
2022-09-24T21:24:13.039Z,14.65
2022-09-24T21:26:41.966Z,10.85
2022-09-24T21:29:12.978Z,12.10
2022-09-24T21:31:42.124Z,13.13
2022-09-24T21:34:10.767Z,13.65
2022-09-24T21:36:44.662Z,14.73
2022-09-24T21:39:15.688Z,11.60
2022-09-24T21:41:44.952Z,8.85
2022-09-24T21:44:15.992Z,22.35
2022-09-24T21:46:44.471Z,14.93
2022-09-24T21:49:13.044Z,7.38
2022-09-24T21:51:43.458Z,15.60
2022-09-24T21:54:15.489Z,15.15
2022-09-24T21:56:43.793Z,14.40
2022-09-24T21:59:25.851Z,12.90
2022-09-24T22:01:54.444Z,14.85
2022-09-24T22:04:23.291Z,14.20
2022-09-24T22:06:52.945Z,14.10
2022-09-24T22:09:21.624Z,10.52
2022-09-24T22:11:51.521Z,8.88
2022-09-24T22:14:19.588Z,11.05
2022-09-24T22:16:47.685Z,14.13
2022-09-24T22:19:15.769Z,10.30
2022-09-24T22:21:44.152Z,12.20
2022-09-24T22:24:13.649Z,15.82
2022-09-24T22:26:41.699Z,16.13
2022-09-24T22:29:09.714Z,13.60
2022-09-24T22:31:37.745Z,17.48
2022-09-24T22:34:22.335Z,12.40
2022-09-24T22:36:51.540Z,16.35
2022-09-24T22:39:21.007Z,11.20
2022-09-24T22:41:49.337Z,12.73
2022-09-24T22:44:17.418Z,16.17
2022-09-24T22:46:45.382Z,13.52
2022-09-24T22:49:13.723Z,13.48
2022-09-24T22:51:41.739Z,6.35
2022-09-24T22:54:10.600Z,15.48
2022-09-24T22:56:40.106Z,15.85
2022-09-24T22:59:08.375Z,9.80
2022-09-24T23:01:41.064Z,12.35
2022-09-24T23:04:10.443Z,11.00
2022-09-24T23:06:38.575Z,16.17
2022-09-24T23:09:06.734Z,18.63
2022-09-24T23:11:36.125Z,19.77
2022-09-24T23:14:07.413Z,9.00
2022-09-24T23:16:37.753Z,17.10
2022-09-24T23:19:08.250Z,11.93
2022-09-24T23:21:37.329Z,13.88
2022-09-24T23:24:07.313Z,12.25
2022-09-24T23:26:35.658Z,14.43
2022-09-24T23:29:05.081Z,15.35
2022-09-24T23:31:35.561Z,13.95
2022-09-24T23:34:04.365Z,13.68
2022-09-24T23:36:33.394Z,16.15
2022-09-24T23:39:02.302Z,7.60
2022-09-24T23:41:31.647Z,13.20
2022-09-24T23:43:59.959Z,19.23
2022-09-24T23:46:29.682Z,16.30
2022-09-24T23:48:58.053Z,14.07
2022-09-24T23:51:26.535Z,12.02
2022-09-24T23:53:54.827Z,20.38
2022-09-24T23:56:23.147Z,16.30
2022-09-24T23:58:51.201Z,18.15
